Time;durP1;ratioP1;P1;durP2;ratioP2;P2;SDS_P1;SDS_P2;PMS_P1;PMS_P2;Temp;Humidity;BMP_temperature;BMP_pressure;BME280_temperature;BME280_humidity;BME280_pressure;Samples;Min_cycle;Max_cycle;Signal;HPM_P1;HPM_P2
2022/02/20 00:00:48;;;;;;;9.60;2.58;;;5.10;87.70;;;;;;5258024;28;20048;-33
2022/02/20 00:03:21;;;;;;;7.15;2.65;;;5.20;87.20;;;;;;5255530;28;20135;-34
2022/02/20 00:05:53;;;;;;;6.25;2.40;;;4.10;85.90;;;;;;5263722;28;20043;-33
2022/02/20 00:08:26;;;;;;;6.53;2.60;;;6.30;88.50;;;;;;5262893;28;20514;-33
2022/02/20 00:10:59;;;;;;;13.67;3.00;;;5.20;88.10;;;;;;5262346;28;20040;-33
2022/02/20 00:13:31;;;;;;;8.57;2.63;;;5.30;87.70;;;;;;5261130;28;20301;-35
2022/02/20 00:16:04;;;;;;;5.53;2.10;;;5.40;88.30;;;;;;5243059;28;20561;-34
2022/02/20 00:18:37;;;;;;;5.30;2.30;;;6.70;87.90;;;;;;5262723;28;20522;-32
2022/02/20 00:21:10;;;;;;;5.35;2.38;;;5.50;87.40;;;;;;5247179;28;20492;-34
2022/02/20 00:23:42;;;;;;;10.13;2.80;;;4.00;85.40;;;;;;5259793;28;20621;-36
2022/02/20 00:26:15;;;;;;;7.35;2.80;;;5.50;86.60;;;;;;5246585;28;20047;-33
2022/02/20 00:28:48;;;;;;;9.48;2.28;;;5.60;86.90;;;;;;5260461;27;20142;-33
2022/02/20 00:31:20;;;;;;;9.30;2.63;;;5.60;85.70;;;;;;5267992;28;21488;-33
2022/02/20 00:33:53;;;;;;;10.77;2.45;;;5.60;86.60;;;;;;5268286;28;20074;-33
2022/02/20 00:36:25;;;;;;;10.90;4.70;;;5.60;86.70;;;;;;5246918;28;20970;-33
2022/02/20 00:38:58;;;;;;;5.32;2.83;;;5.60;85.10;;;;;;5250233;28;20059;-34
2022/02/20 00:41:30;;;;;;;6.20;2.33;;;5.70;85.00;;;;;;5255620;28;20044;-33
2022/02/20 00:44:03;;;;;;;7.30;2.22;;;5.70;87.40;;;;;;5265663;28;20056;-35
2022/02/20 00:46:36;;;;;;;9.87;2.23;;;5.70;84.80;;;;;;5264999;28;20040;-36
2022/02/20 00:49:09;;;;;;;5.13;2.03;;;5.70;86.30;;;;;;5267970;28;20051;-35
2022/02/20 00:51:41;;;;;;;6.22;2.22;;;5.70;85.40;;;;;;5244466;28;20055;-33
2022/02/20 00:54:14;;;;;;;5.25;2.30;;;5.70;86.30;;;;;;5246919;28;20047;-33
2022/02/20 00:56:46;;;;;;;6.97;1.85;;;5.70;85.50;;;;;;5262137;27;21234;-32
2022/02/20 00:59:19;;;;;;;7.35;2.33;;;5.80;85.60;;;;;;5261944;28;20039;-33
2022/02/20 01:01:52;;;;;;;5.47;1.92;;;5.90;86.70;;;;;;5240920;28;20039;-33
2022/02/20 01:04:27;;;;;;;6.03;1.77;;;5.90;85.30;;;;;;5264570;28;20422;-33
2022/02/20 01:06:59;;;;;;;7.28;1.95;;;4.80;85.20;;;;;;5232929;28;20051;-33
2022/02/20 01:09:32;;;;;;;6.78;2.05;;;6.00;85.80;;;;;;5265666;28;20048;-34
2022/02/20 01:12:05;;;;;;;7.03;2.50;;;6.10;83.80;;;;;;5237381;28;20055;-33
2022/02/20 01:14:38;;;;;;;10.90;2.35;;;6.10;83.70;;;;;;5243667;28;20043;-33
2022/02/20 01:17:11;;;;;;;4.40;1.92;;;6.20;83.20;;;;;;5268950;28;20047;-33
2022/02/20 01:19:43;;;;;;;3.08;1.73;;;6.20;83.00;;;;;;5246005;28;20044;-34
2022/02/20 01:22:16;;;;;;;7.68;2.25;;;6.20;81.80;;;;;;5236174;28;20052;-33
2022/02/20 01:24:48;;;;;;;5.03;2.03;;;6.20;83.20;;;;;;5259429;28;20044;-33
2022/02/20 01:27:22;;;;;;;3.72;1.83;;;8.10;82.80;;;;;;5243390;28;20039;-33
2022/02/20 01:29:54;;;;;;;3.95;1.50;;;7.40;81.00;;;;;;5248962;28;20043;-34
2022/02/20 01:32:26;;;;;;;8.35;1.73;;;6.30;81.00;;;;;;5266576;28;20633;-33
2022/02/20 01:34:59;;;;;;;8.45;1.55;;;6.40;80.60;;;;;;5269619;28;20042;-33
2022/02/20 01:37:33;;;;;;;5.05;1.67;;;6.40;79.60;;;;;;5267279;28;20050;-33
2022/02/20 01:40:06;;;;;;;7.78;1.70;;;6.40;81.00;;;;;;5230944;28;20043;-32
2022/02/20 01:42:39;;;;;;;6.05;1.58;;;6.40;79.20;;;;;;5239543;28;20446;-33
2022/02/20 01:45:13;;;;;;;4.22;1.50;;;6.40;78.70;;;;;;5260573;28;20044;-33
2022/02/20 01:47:45;;;;;;;5.43;1.83;;;6.70;79.70;;;;;;5238666;28;20056;-33
2022/02/20 01:50:18;;;;;;;7.63;1.88;;;6.40;79.50;;;;;;5267092;28;20411;-33
2022/02/20 01:52:53;;;;;;;5.32;1.60;;;6.40;78.80;;;;;;5246626;28;20044;-33
2022/02/20 01:55:26;;;;;;;3.42;1.50;;;6.40;79.00;;;;;;5239258;28;20048;-33
2022/02/20 01:58:13;;;;;;;5.22;1.63;;;6.50;77.70;;;;;;5247609;27;20051;-33
2022/02/20 02:01:08;;;;;;;3.10;1.45;;;6.50;76.90;;;;;;5237888;28;20099;-33
2022/02/20 02:03:56;;;;;;;4.07;1.70;;;6.40;76.10;;;;;;5249171;28;20644;-33
2022/02/20 02:06:51;;;;;;;3.88;1.40;;;6.30;74.90;;;;;;5240265;28;20050;-33
2022/02/20 02:09:38;;;;;;;5.85;1.60;;;6.30;76.30;;;;;;5262580;28;20046;-33
2022/02/20 02:12:31;;;;;;;3.70;1.40;;;;;;;;;;5234868;28;20043;-33
2022/02/20 02:15:32;;;;;;;6.82;1.80;;;6.30;71.60;;;;;;5250557;28;20040;-33
2022/02/20 02:18:19;;;;;;;3.80;1.67;;;6.20;72.90;;;;;;5252071;28;20047;-33
2022/02/20 02:21:27;;;;;;;4.13;1.35;;;6.80;75.30;;;;;;5245057;28;20503;-33
2022/02/20 02:24:17;;;;;;;7.82;1.75;;;6.20;74.70;;;;;;5246398;27;20503;-33
2022/02/20 02:26:56;;;;;;;4.32;1.95;;;6.20;75.60;;;;;;5246909;28;20054;-32
2022/02/20 02:30:10;;;;;;;3.97;1.65;;;6.20;74.30;;;;;;5238141;28;20047;-33
2022/02/20 02:32:42;;;;;;;4.47;1.60;;;6.20;73.60;;;;;;5262330;28;20563;-33
2022/02/20 02:35:16;;;;;;;2.28;1.40;;;6.00;75.50;;;;;;5245250;28;20612;-33
2022/02/20 02:37:49;;;;;;;3.55;1.77;;;5.50;75.00;;;;;;5266078;28;20058;-33
2022/02/20 02:40:21;;;;;;;2.90;1.47;;;6.10;75.30;;;;;;5248064;28;20035;-33
2022/02/20 02:42:54;;;;;;;5.05;1.65;;;6.00;77.50;;;;;;5241591;28;20059;-33
2022/02/20 02:45:28;;;;;;;;;;;6.10;77.60;;;;;;5234803;28;20032;-32
2022/02/20 02:48:02;;;;;;;3.13;1.40;;;6.10;75.80;;;;;;5253225;28;19923;-33
2022/02/20 02:50:34;;;;;;;2.97;1.45;;;6.10;77.20;;;;;;5236753;28;20044;-32
2022/02/20 02:53:07;;;;;;;6.03;1.35;;;6.10;76.50;;;;;;5249014;28;20070;-33
2022/02/20 02:55:44;;;;;;;7.47;2.72;;;6.10;77.00;;;;;;5265325;28;20059;-33
2022/02/20 02:58:17;;;;;;;4.78;1.73;;;6.10;77.20;;;;;;5249361;28;20039;-33
2022/02/20 03:00:53;;;;;;;3.45;1.75;;;6.00;79.40;;;;;;5247709;28;20056;-33
2022/02/20 03:03:26;;;;;;;;;;;6.00;79.00;;;;;;5255364;28;20046;-33
2022/02/20 03:05:59;;;;;;;2.85;1.33;;;7.70;82.00;;;;;;5263132;28;19927;-33
2022/02/20 03:08:32;;;;;;;3.15;1.50;;;9.20;82.70;;;;;;5245385;28;20058;-33
2022/02/20 03:11:05;;;;;;;5.40;1.40;;;6.10;81.50;;;;;;5243620;28;20047;-33
2022/02/20 03:13:39;;;;;;;;;;;5.80;80.80;;;;;;5245172;28;20043;-33
2022/02/20 03:16:16;;;;;;;3.53;1.30;;;5.30;81.90;;;;;;5246759;28;19946;-33
2022/02/20 03:18:55;;;;;;;4.72;1.50;;;5.70;81.40;;;;;;5249288;28;20054;-33
2022/02/20 03:21:29;;;;;;;3.58;1.50;;;4.60;83.10;;;;;;5245573;28;20266;-33
2022/02/20 03:24:02;;;;;;;4.43;1.00;;;7.30;83.80;;;;;;5225014;28;20067;-34
2022/02/20 03:26:34;;;;;;;3.45;1.40;;;;;;;;;;5240392;28;20052;-33
2022/02/20 03:29:08;;;;;;;2.33;1.20;;;5.70;82.70;;;;;;5246153;28;20514;-33
2022/02/20 03:31:41;;;;;;;2.17;1.20;;;5.70;83.90;;;;;;5237433;28;20032;-33
2022/02/20 03:34:14;;;;;;;3.55;1.30;;;5.70;84.60;;;;;;5238873;28;20530;-33
2022/02/20 03:36:51;;;;;;;3.80;1.08;;;5.60;84.50;;;;;;5240294;28;20054;-33
2022/02/20 03:39:35;;;;;;;3.00;1.23;;;5.60;85.40;;;;;;5243436;28;20544;-33
2022/02/20 03:42:13;;;;;;;3.20;1.38;;;5.60;85.90;;;;;;5247978;28;20044;-33
2022/02/20 03:45:01;;;;;;;5.25;1.30;;;5.60;87.10;;;;;;5237486;28;20036;-32
2022/02/20 03:47:36;;;;;;;4.60;1.33;;;5.20;87.80;;;;;;5242277;28;20425;-33
2022/02/20 03:50:09;;;;;;;2.45;1.45;;;5.50;87.40;;;;;;5240316;28;20043;-32
2022/02/20 03:52:45;;;;;;;4.18;1.58;;;5.80;88.30;;;;;;5236204;28;20500;-33
2022/02/20 03:55:27;;;;;;;4.35;1.50;;;;;;;;;;5233587;28;20044;-32
2022/02/20 03:58:01;;;;;;;4.88;1.40;;;5.50;87.20;;;;;;5239420;28;20048;-33
2022/02/20 04:01:00;;;;;;;2.42;1.35;;;5.10;88.80;;;;;;5257818;28;20376;-33
2022/02/20 04:03:41;;;;;;;5.03;2.25;;;4.80;88.20;;;;;;5239693;28;20032;-32
2022/02/20 04:06:13;;;;;;;2.70;1.20;;;4.50;87.80;;;;;;5268217;28;20044;-33
2022/02/20 04:08:51;;;;;;;2.55;1.30;;;5.20;87.60;;;;;;5251320;28;20044;-32
2022/02/20 04:11:27;;;;;;;4.90;1.60;;;;;;;;;;5241375;28;20507;-32
2022/02/20 04:14:13;;;;;;;5.43;1.67;;;6.10;88.60;;;;;;5266844;27;20043;-32
2022/02/20 04:17:07;;;;;;;2.97;1.35;;;5.40;86.80;;;;;;5257194;28;20043;-32
2022/02/20 04:19:43;;;;;;;3.10;1.65;;;6.90;89.20;;;;;;5243755;28;20043;-32
2022/02/20 04:22:16;;;;;;;6.32;1.50;;;5.90;88.50;;;;;;5233629;28;20031;-32
2022/02/20 04:24:49;;;;;;;1.90;1.23;;;5.40;87.00;;;;;;5250977;28;20044;-32
2022/02/20 04:27:23;;;;;;;5.22;1.77;;;6.50;89.10;;;;;;5243072;27;20062;-32
2022/02/20 04:29:56;;;;;;;4.82;1.50;;;5.40;87.50;;;;;;5270658;27;20055;-32
2022/02/20 04:32:29;;;;;;;3.22;1.30;;;6.50;88.80;;;;;;5237396;28;20048;-33
2022/02/20 04:35:05;;;;;;;6.90;1.63;;;7.20;88.60;;;;;;5250834;28;20558;-33
2022/02/20 04:37:38;;;;;;;3.37;1.60;;;4.10;86.90;;;;;;5253691;28;20048;-33
2022/02/20 04:40:11;;;;;;;4.97;1.80;;;6.70;88.60;;;;;;5245386;28;20070;-32
2022/02/20 04:42:53;;;;;;;5.30;2.00;;;5.50;86.90;;;;;;5267445;28;20048;-33
2022/02/20 04:45:25;;;;;;;4.72;1.25;;;6.80;87.90;;;;;;5246082;28;20047;-33
2022/02/20 04:47:58;;;;;;;3.07;1.60;;;6.80;87.70;;;;;;5253959;28;20055;-33
2022/02/20 04:50:31;;;;;;;3.35;1.27;;;6.70;87.50;;;;;;5252863;28;20660;-33
2022/02/20 04:53:18;;;;;;;2.50;1.33;;;5.70;86.10;;;;;;5254898;28;20047;-32
2022/02/20 04:55:59;;;;;;;2.78;1.40;;;5.60;85.30;;;;;;5243831;28;20064;-32
2022/02/20 04:58:40;;;;;;;1.90;1.30;;;5.60;85.50;;;;;;5249589;28;21883;-33
2022/02/20 05:01:26;;;;;;;3.67;1.27;;;4.10;84.40;;;;;;5236849;28;20439;-33
2022/02/20 05:04:17;;;;;;;4.68;1.65;;;6.10;85.90;;;;;;5260490;28;20612;-34
2022/02/20 05:06:53;;;;;;;4.93;1.55;;;5.60;84.70;;;;;;5247607;28;20055;-34
2022/02/20 05:09:31;;;;;;;4.20;1.58;;;5.00;85.70;;;;;;5247786;28;20047;-34
2022/02/20 05:12:06;;;;;;;2.38;1.52;;;6.30;86.40;;;;;;5247302;28;20044;-34
2022/02/20 05:14:39;;;;;;;2.60;1.77;;;5.10;85.40;;;;;;5234365;28;20142;-33
2022/02/20 05:17:24;;;;;;;2.92;1.52;;;;;;;;;;5240846;28;20044;-34
2022/02/20 05:20:03;;;;;;;2.28;1.50;;;6.30;86.00;;;;;;5249856;28;20043;-34
2022/02/20 05:22:36;;;;;;;4.40;1.50;;;3.40;84.80;;;;;;5244126;28;20043;-33
2022/02/20 05:25:14;;;;;;;5.53;1.63;;;6.80;86.10;;;;;;5249355;28;20047;-33
2022/02/20 05:27:47;;;;;;;3.85;1.65;;;6.50;85.80;;;;;;5258640;28;20054;-33
2022/02/20 05:30:21;;;;;;;3.20;1.33;;;;;;;;;;5248296;28;20399;-33
2022/02/20 05:33:10;;;;;;;2.85;1.58;;;5.80;84.30;;;;;;5256267;28;20039;-33
2022/02/20 05:35:42;;;;;;;4.20;1.70;;;5.90;84.70;;;;;;5258867;28;20039;-33
2022/02/20 05:38:16;;;;;;;2.08;1.55;;;5.90;84.50;;;;;;5235310;28;20044;-33
2022/02/20 05:40:49;;;;;;;2.97;1.50;;;7.00;86.10;;;;;;5247023;28;20925;-34
2022/02/20 05:43:21;;;;;;;5.57;1.88;;;5.80;84.40;;;;;;5264480;28;20275;-34
2022/02/20 05:45:55;;;;;;;3.08;1.70;;;6.80;86.20;;;;;;5232038;28;20056;-34
2022/02/20 05:48:34;;;;;;;2.78;1.45;;;5.00;84.50;;;;;;5246942;28;20042;-33
2022/02/20 05:51:22;;;;;;;6.43;1.77;;;6.90;86.00;;;;;;5241300;28;20051;-34
2022/02/20 05:54:17;;;;;;;4.40;1.55;;;6.10;84.20;;;;;;5266864;28;20059;-33
2022/02/20 05:56:50;;;;;;;3.42;1.40;;;5.70;84.10;;;;;;5247809;28;20052;-33
2022/02/20 05:59:24;;;;;;;1.95;1.52;;;7.00;85.50;;;;;;5249628;28;20047;-33
2022/02/20 06:02:00;;;;;;;5.50;1.65;;;6.20;84.50;;;;;;5247751;28;20323;-34
2022/02/20 06:04:32;;;;;;;2.20;1.23;;;6.70;84.50;;;;;;5239360;28;20044;-33
2022/02/20 06:07:28;;;;;;;4.00;1.63;;;6.00;83.00;;;;;;5255898;28;20064;-33
2022/02/20 06:10:22;;;;;;;2.60;1.52;;;7.00;85.80;;;;;;5261289;28;20052;-33
2022/02/20 06:13:10;;;;;;;8.57;2.00;;;5.60;84.20;;;;;;5257436;28;20380;-33
2022/02/20 06:16:01;;;;;;;2.70;1.50;;;;;;;;;;5258063;28;20046;-33
2022/02/20 06:18:53;;;;;;;4.47;1.50;;;5.90;82.90;;;;;;5265283;28;20407;-34
2022/02/20 06:21:49;;;;;;;4.07;1.90;;;6.00;83.30;;;;;;5245317;28;20060;-33
2022/02/20 06:24:35;;;;;;;2.38;1.27;;;7.30;86.00;;;;;;5247973;28;20051;-33
2022/02/20 06:27:14;;;;;;;5.00;2.05;;;10.10;87.30;;;;;;5246651;28;20036;-33
2022/02/20 06:30:07;;;;;;;9.40;1.60;;;6.00;83.50;;;;;;5246727;28;20699;-33
2022/02/20 06:32:40;;;;;;;4.93;1.42;;;;;;;;;;5241375;28;20055;-33
2022/02/20 06:35:13;;;;;;;3.43;1.30;;;6.00;82.80;;;;;;5236539;28;20047;-33
2022/02/20 06:37:46;;;;;;;;;;;6.00;83.60;;;;;;5251047;28;20047;-33
2022/02/20 06:40:19;;;;;;;5.75;1.60;;;6.00;83.00;;;;;;5245021;28;20367;-34
2022/02/20 06:42:52;;;;;;;6.00;1.52;;;6.00;83.70;;;;;;5245289;28;20067;-33
2022/02/20 06:45:27;;;;;;;2.35;1.63;;;6.00;83.70;;;;;;5242122;28;20487;-33
2022/02/20 06:48:26;;;;;;;6.78;1.88;;;6.80;85.80;;;;;;5263682;27;20051;-33
2022/02/20 06:51:26;;;;;;;3.03;1.75;;;6.20;85.30;;;;;;5239213;27;20067;-33
2022/02/20 06:54:14;;;;;;;3.53;1.65;;;6.80;84.80;;;;;;5249192;28;20043;-33
2022/02/20 06:56:52;;;;;;;2.25;1.60;;;6.00;83.20;;;;;;5233423;28;20296;-33
2022/02/20 06:59:24;;;;;;;6.15;1.40;;;6.00;84.60;;;;;;5248578;28;20522;-33
2022/02/20 07:01:57;;;;;;;2.00;1.60;;;6.90;85.50;;;;;;5235183;28;20060;-33
2022/02/20 07:04:29;;;;;;;5.78;1.90;;;10.00;88.00;;;;;;5252970;28;20063;-33
2022/02/20 07:07:02;;;;;;;1.75;1.30;;;6.20;84.60;;;;;;5249569;28;20963;-33
2022/02/20 07:09:35;;;;;;;3.73;1.93;;;;;;;;;;5244157;28;20506;-33
2022/02/20 07:12:08;;;;;;;1.83;1.67;;;4.90;83.90;;;;;;5253145;28;20411;-33
2022/02/20 07:14:40;;;;;;;2.78;1.63;;;6.10;84.00;;;;;;5249782;28;20043;-33
2022/02/20 07:17:13;;;;;;;2.75;1.60;;;8.30;85.20;;;;;;5241442;28;20495;-33
2022/02/20 07:19:45;;;;;;;2.15;1.35;;;;;;;;;;5250803;28;20047;-33
2022/02/20 07:22:18;;;;;;;2.47;1.50;;;7.00;85.50;;;;;;5246338;27;20055;-40
2022/02/20 07:24:51;;;;;;;4.53;1.55;;;;;;;;;;5250014;28;20058;-33
2022/02/20 07:27:23;;;;;;;6.93;1.73;;;5.90;84.80;;;;;;5249644;28;20536;-35
2022/02/20 07:29:56;;;;;;;5.15;1.83;;;5.00;84.70;;;;;;5220875;28;20392;-33
2022/02/20 07:32:28;;;;;;;5.07;1.48;;;6.20;84.00;;;;;;5225318;28;20047;-33
2022/02/20 07:35:02;;;;;;;3.58;1.40;;;6.10;83.70;;;;;;5226373;28;20040;-33
2022/02/20 07:37:34;;;;;;;;;;;6.20;84.30;;;;;;5218103;28;20370;-33
2022/02/20 07:40:07;;;;;;;2.65;1.45;;;6.20;82.10;;;;;;5249048;28;19939;-33
2022/02/20 07:42:41;;;;;;;3.95;1.50;;;;;;;;;;5234667;28;20043;-32
2022/02/20 07:45:13;;;;;;;5.28;1.67;;;;;;;;;;5233184;28;20032;-33
2022/02/20 07:48:04;;;;;;;4.82;1.63;;;6.30;82.10;;;;;;5213158;28;20059;-33
2022/02/20 07:50:38;;;;;;;3.15;1.27;;;6.30;81.80;;;;;;5221322;28;20046;-33
2022/02/20 07:53:11;;;;;;;6.63;1.70;;;;;;;;;;5225429;28;20048;-33
2022/02/20 07:55:45;;;;;;;8.82;1.67;;;;;;;;;;5234169;28;20672;-32
2022/02/20 07:58:19;;;;;;;3.33;1.20;;;;;;;;;;5218434;28;20043;-33
2022/02/20 08:00:57;;;;;;;5.05;1.63;;;;;;;;;;5220635;28;20052;-33
2022/02/20 08:03:30;;;;;;;2.47;1.40;;;;;;;;;;5234178;28;20050;-33
2022/02/20 08:06:05;;;;;;;4.25;1.77;;;6.50;81.90;;;;;;5254737;28;20054;-34
2022/02/20 08:08:38;;;;;;;2.50;1.42;;;8.40;84.10;;;;;;5247153;28;20507;-34
2022/02/20 08:11:10;;;;;;;3.58;1.63;;;10.00;85.20;;;;;;5248783;28;20050;-33
2022/02/20 08:13:43;;;;;;;2.47;1.20;;;6.60;82.40;;;;;;5242867;28;20487;-33
2022/02/20 08:16:16;;;;;;;3.63;2.05;;;9.90;84.30;;;;;;5232700;28;20612;-33
2022/02/20 08:18:48;;;;;;;2.45;1.35;;;6.60;82.10;;;;;;5243657;28;20052;-33
2022/02/20 08:21:22;;;;;;;3.08;1.73;;;6.70;82.70;;;;;;5247043;28;20047;-34
2022/02/20 08:23:54;;;;;;;2.80;1.30;;;6.70;82.40;;;;;;5247856;28;20044;-33
2022/02/20 08:26:27;;;;;;;4.60;1.58;;;6.70;81.50;;;;;;5249967;28;20036;-33
2022/02/20 08:29:00;;;;;;;4.68;1.65;;;6.30;81.80;;;;;;5225019;28;20039;-36
2022/02/20 08:31:32;;;;;;;3.50;1.40;;;7.30;82.10;;;;;;5215756;28;20554;-33
2022/02/20 08:34:05;;;;;;;4.80;1.52;;;6.70;81.50;;;;;;5248994;28;20060;-33
2022/02/20 08:36:38;;;;;;;2.97;1.30;;;7.20;82.10;;;;;;5246072;28;20287;-33
2022/02/20 08:39:11;;;;;;;4.45;1.42;;;6.80;81.90;;;;;;5246051;28;20040;-35
2022/02/20 08:41:43;;;;;;;3.35;1.40;;;7.20;82.40;;;;;;5232622;28;20515;-33
2022/02/20 08:44:16;;;;;;;2.15;1.50;;;6.80;82.20;;;;;;5239858;28;20044;-33
2022/02/20 08:46:48;;;;;;;2.63;1.40;;;6.80;81.90;;;;;;5231805;28;20338;-34
2022/02/20 08:49:21;;;;;;;3.75;1.40;;;6.80;82.10;;;;;;5249437;28;20047;-33
2022/02/20 08:51:54;;;;;;;4.63;1.63;;;6.90;83.00;;;;;;5252335;28;20348;-34
2022/02/20 08:54:26;;;;;;;3.53;1.80;;;6.90;81.70;;;;;;5248304;28;20051;-34
2022/02/20 08:56:59;;;;;;;5.03;1.50;;;7.00;81.90;;;;;;5231625;28;20054;-33
2022/02/20 08:59:31;;;;;;;5.93;2.05;;;7.00;81.90;;;;;;5253217;28;20057;-33
2022/02/20 09:02:04;;;;;;;3.50;1.52;;;7.00;81.80;;;;;;5254832;28;20058;-33
2022/02/20 09:04:39;;;;;;;3.25;1.50;;;7.00;81.90;;;;;;5225870;28;20051;-34
2022/02/20 09:07:12;;;;;;;6.55;1.73;;;7.10;82.00;;;;;;5233561;27;21770;-33
2022/02/20 09:09:44;;;;;;;2.53;1.35;;;10.00;82.80;;;;;;5210306;28;20059;-33
2022/02/20 09:12:17;;;;;;;1.80;1.30;;;7.90;80.60;;;;;;5232864;27;20050;-35
2022/02/20 09:14:49;;;;;;;3.13;1.60;;;7.30;80.90;;;;;;5231869;27;20336;-33
2022/02/20 09:17:22;;;;;;;2.30;1.30;;;7.40;81.40;;;;;;5215949;28;21474;-33
2022/02/20 09:19:55;;;;;;;1.70;1.30;;;7.50;80.90;;;;;;5230125;27;20430;-33
2022/02/20 09:22:27;;;;;;;4.47;1.40;;;7.60;81.10;;;;;;5232854;27;20051;-34
2022/02/20 09:25:00;;;;;;;3.22;1.30;;;5.80;79.10;;;;;;5230094;28;20051;-33
2022/02/20 09:27:34;;;;;;;5.65;1.90;;;7.60;80.40;;;;;;5237717;27;20048;-34
2022/02/20 09:30:07;;;;;;;4.32;1.40;;;7.80;80.40;;;;;;5230095;28;20059;-33
2022/02/20 09:32:40;;;;;;;2.10;1.05;;;7.90;79.80;;;;;;5236873;28;20998;-33
2022/02/20 09:35:12;;;;;;;2.10;1.40;;;9.20;79.30;;;;;;5232104;28;20211;-34
2022/02/20 09:37:45;;;;;;;2.67;1.50;;;10.60;80.90;;;;;;5256524;28;20058;-34
2022/02/20 09:40:18;;;;;;;3.85;1.55;;;7.90;78.00;;;;;;5253283;28;21295;-33
2022/02/20 09:42:51;;;;;;;2.63;1.60;;;7.90;78.20;;;;;;5259078;28;20056;-33
2022/02/20 09:45:23;;;;;;;4.97;1.70;;;9.50;80.20;;;;;;5245645;28;20044;-33
2022/02/20 09:48:01;;;;;;;3.55;1.70;;;9.60;79.90;;;;;;5253160;28;20312;-33
2022/02/20 09:50:33;;;;;;;2.17;1.50;;;8.20;79.20;;;;;;5257191;28;20059;-33
2022/02/20 09:53:06;;;;;;;3.30;1.25;;;9.60;79.80;;;;;;5254461;28;20036;-34
2022/02/20 09:55:39;;;;;;;2.45;1.58;;;8.20;78.10;;;;;;5249961;28;20063;-34
2022/02/20 09:58:13;;;;;;;2.63;1.48;;;5.50;75.70;;;;;;5259352;28;20044;-33
2022/02/20 10:00:52;;;;;;;;;;;8.40;77.20;;;;;;5262525;28;20047;-33
2022/02/20 10:03:39;;;;;;;6.45;1.33;;;9.30;78.10;;;;;;5250721;28;19920;-33
2022/02/20 10:06:17;;;;;;;3.28;1.20;;;8.70;77.40;;;;;;5250451;28;20048;-33
2022/02/20 10:08:52;;;;;;;6.25;2.70;;;8.80;75.80;;;;;;5256661;28;20497;-34
2022/02/20 10:11:29;;;;;;;3.05;1.35;;;8.80;76.30;;;;;;5254585;28;20048;-33
2022/02/20 10:14:17;;;;;;;3.28;1.52;;;8.90;75.90;;;;;;5257153;28;20048;-33
2022/02/20 10:16:50;;;;;;;3.90;1.15;;;9.70;77.30;;;;;;5254333;28;20904;-34
2022/02/20 10:20:00;;;;;;;2.22;0.90;;;10.30;77.40;;;;;;5233781;28;20554;-33
2022/02/20 10:22:53;;;;;;;2.67;1.20;;;8.90;76.00;;;;;;5223160;28;20091;-34
2022/02/20 10:25:47;;;;;;;3.50;1.48;;;9.00;76.00;;;;;;5257967;28;20044;-34
2022/02/20 10:28:59;;;;;;;1.13;0.85;;;8.30;75.80;;;;;;5257630;28;20044;-33
2022/02/20 10:31:38;;;;;;;5.22;1.08;;;8.90;75.40;;;;;;5256689;27;20103;-33
2022/02/20 10:34:21;;;;;;;2.50;1.10;;;9.10;75.20;;;;;;5254133;28;20266;-35
2022/02/20 10:36:55;;;;;;;3.80;1.13;;;9.10;74.30;;;;;;5240658;28;20048;-34
2022/02/20 10:39:32;;;;;;;4.65;1.17;;;9.10;75.20;;;;;;5240245;28;20226;-33
2022/02/20 10:42:15;;;;;;;1.63;0.95;;;9.10;74.90;;;;;;5261649;28;20043;-33
2022/02/20 10:44:49;;;;;;;2.55;1.00;;;;;;;;;;5254739;27;20127;-34
2022/02/20 10:47:24;;;;;;;2.45;1.48;;;8.40;74.10;;;;;;5265020;28;20047;-34
2022/02/20 10:50:23;;;;;;;4.07;1.25;;;9.20;75.10;;;;;;5260409;28;20504;-34
2022/02/20 10:53:31;;;;;;;1.23;1.00;;;9.40;74.50;;;;;;5255407;28;20055;-34
2022/02/20 10:56:07;;;;;;;3.63;1.13;;;9.40;74.50;;;;;;5242636;28;20048;-34
2022/02/20 10:58:49;;;;;;;4.10;1.37;;;9.30;73.80;;;;;;5252324;28;20047;-34
2022/02/20 11:01:24;;;;;;;1.10;1.00;;;10.40;75.80;;;;;;5258181;28;20054;-33
2022/02/20 11:04:05;;;;;;;4.53;1.13;;;8.90;74.60;;;;;;5256755;28;20040;-33
2022/02/20 11:06:39;;;;;;;2.17;0.90;;;10.30;75.20;;;;;;5256755;28;20526;-34
2022/02/20 11:09:12;;;;;;;1.90;1.13;;;9.30;74.60;;;;;;5248899;28;20351;-34
2022/02/20 11:11:51;;;;;;;4.65;1.23;;;9.40;75.00;;;;;;5256437;27;20055;-34
2022/02/20 11:14:24;;;;;;;1.05;0.88;;;9.40;74.80;;;;;;5242334;28;20032;-33
2022/02/20 11:16:57;;;;;;;2.38;0.95;;;9.40;74.50;;;;;;5255813;28;20046;-34
2022/02/20 11:19:32;;;;;;;4.65;1.75;;;9.30;74.60;;;;;;5252028;28;20071;-33
2022/02/20 11:22:07;;;;;;;2.72;0.93;;;9.50;73.60;;;;;;5259265;28;20058;-33
2022/02/20 11:24:43;;;;;;;1.92;1.00;;;9.40;74.10;;;;;;5236217;28;20048;-33
2022/02/20 11:27:19;;;;;;;4.13;1.33;;;11.30;74.60;;;;;;5266948;28;20301;-33
2022/02/20 11:29:56;;;;;;;1.45;0.93;;;9.50;73.50;;;;;;5267111;28;20039;-33
2022/02/20 11:32:30;;;;;;;2.63;1.20;;;9.50;73.20;;;;;;5248334;28;20039;-33
2022/02/20 11:35:08;;;;;;;;;;;9.50;73.90;;;;;;5243492;28;20534;-34
2022/02/20 11:37:50;;;;;;;2.13;1.25;;;9.60;72.30;;;;;;5254587;28;21117;-34
2022/02/20 11:40:26;;;;;;;1.90;1.05;;;9.60;73.30;;;;;;5236669;28;22818;-34
2022/02/20 11:42:58;;;;;;;3.55;1.15;;;9.60;72.90;;;;;;5256925;28;20067;-34
2022/02/20 11:45:32;;;;;;;3.53;1.10;;;9.70;73.40;;;;;;5257195;28;20051;-33
2022/02/20 11:48:06;;;;;;;;;;;9.70;73.40;;;;;;5255761;28;20487;-34
2022/02/20 11:50:44;;;;;;;1.40;1.00;;;9.70;72.30;;;;;;5263027;28;19931;-34
2022/02/20 11:53:26;;;;;;;6.68;1.73;;;9.80;72.20;;;;;;5246096;22;20048;-52
2022/02/20 11:56:04;;;;;;;3.55;1.20;;;9.80;72.90;;;;;;5167566;28;20064;-47
2022/02/20 11:58:39;;;;;;;0.80;0.75;;;11.80;72.10;;;;;;5168948;28;20050;-46
2022/02/20 12:01:12;;;;;;;4.25;1.10;;;9.90;71.60;;;;;;5151406;28;20054;-43
2022/02/20 12:03:45;;;;;;;3.30;1.00;;;10.00;72.20;;;;;;5172805;28;20057;-44
2022/02/20 12:06:22;;;;;;;2.47;1.20;;;10.00;72.30;;;;;;5180967;28;20398;-49
2022/02/20 12:08:59;;;;;;;1.65;0.95;;;10.10;71.90;;;;;;5175152;28;20041;-41
2022/02/20 12:11:44;;;;;;;1.67;0.80;;;10.10;71.50;;;;;;5177163;28;20042;-46
2022/02/20 12:14:26;;;;;;;4.70;1.05;;;10.40;69.80;;;;;;5185620;28;20494;-42
2022/02/20 12:17:01;;;;;;;4.28;0.88;;;10.10;70.00;;;;;;5177749;28;20050;-46
2022/02/20 12:19:35;;;;;;;1.67;0.80;;;10.00;70.50;;;;;;5179996;28;20049;-45
2022/02/20 12:22:09;;;;;;;1.90;0.70;;;10.00;70.60;;;;;;5185357;28;20056;-50
2022/02/20 12:24:59;;;;;;;2.15;0.60;;;9.80;69.10;;;;;;5175914;28;20053;-42
2022/02/20 12:27:38;;;;;;;2.40;0.70;;;10.10;70.00;;;;;;5171874;28;20508;-42
2022/02/20 12:30:14;;;;;;;3.50;0.80;;;10.20;69.90;;;;;;5184497;28;20562;-43
2022/02/20 12:32:50;;;;;;;1.17;0.70;;;10.20;71.20;;;;;;5183749;28;20053;-44
2022/02/20 12:35:23;;;;;;;1.92;0.73;;;9.80;69.70;;;;;;5179863;28;20049;-42
2022/02/20 12:37:56;;;;;;;2.63;1.13;;;10.30;70.60;;;;;;5173438;28;21026;-42
2022/02/20 12:40:31;;;;;;;1.60;1.00;;;10.40;70.60;;;;;;5179727;28;20069;-49
2022/02/20 12:43:07;;;;;;;2.25;1.00;;;10.40;70.50;;;;;;5182243;28;20045;-47
2022/02/20 12:45:41;;;;;;;1.58;0.73;;;10.30;70.00;;;;;;5182472;28;21716;-45
2022/02/20 12:48:15;;;;;;;3.67;0.95;;;10.30;70.00;;;;;;5184905;28;20421;-46
2022/02/20 12:50:49;;;;;;;2.90;0.98;;;10.30;70.50;;;;;;5180994;28;20749;-47
2022/02/20 12:53:25;;;;;;;2.70;0.70;;;10.20;69.60;;;;;;5186901;28;20049;-43
2022/02/20 12:55:57;;;;;;;1.38;0.98;;;10.30;69.60;;;;;;5192127;28;20405;-44
2022/02/20 12:58:30;;;;;;;0.80;0.73;;;10.30;69.00;;;;;;5190897;28;20053;-47
2022/02/20 13:01:02;;;;;;;6.97;1.13;;;11.30;69.20;;;;;;5184941;28;20607;-46
2022/02/20 13:03:36;;;;;;;1.42;0.90;;;10.50;69.30;;;;;;5189170;28;20053;-46
2022/02/20 13:06:08;;;;;;;0.85;0.65;;;10.60;68.60;;;;;;5168562;28;20599;-45
2022/02/20 13:08:41;;;;;;;1.15;0.68;;;10.70;68.70;;;;;;5186142;28;20441;-45
2022/02/20 13:11:27;;;;;;;2.38;0.65;;;10.70;69.20;;;;;;5181559;28;20045;-47
2022/02/20 13:14:12;;;;;;;1.63;0.88;;;10.70;68.50;;;;;;5173473;28;20073;-44
2022/02/20 13:16:54;;;;;;;1.48;0.82;;;10.60;67.70;;;;;;5184909;28;20513;-45
2022/02/20 13:19:34;;;;;;;1.67;0.65;;;10.60;67.50;;;;;;5178508;28;20060;-43
2022/02/20 13:22:14;;;;;;;1.48;0.80;;;10.60;67.20;;;;;;5186911;28;20050;-43
2022/02/20 13:24:54;;;;;;;1.42;0.60;;;10.60;68.50;;;;;;5185635;28;20061;-46
2022/02/20 13:27:27;;;;;;;1.95;0.88;;;10.60;69.80;;;;;;5178760;28;21906;-46
2022/02/20 13:29:59;;;;;;;1.15;0.70;;;10.50;69.70;;;;;;5162171;28;20048;-49
2022/02/20 13:32:32;;;;;;;2.38;0.70;;;9.40;67.40;;;;;;5178040;28;20046;-47
2022/02/20 13:35:05;;;;;;;1.15;0.65;;;10.50;68.30;;;;;;5153386;28;20042;-49
2022/02/20 13:37:37;;;;;;;1.25;0.57;;;10.50;68.50;;;;;;5163909;28;20045;-49
2022/02/20 13:40:11;;;;;;;1.98;0.68;;;10.60;69.00;;;;;;5174397;28;20045;-48
2022/02/20 13:43:00;;;;;;;1.35;1.02;;;10.60;69.40;;;;;;5172596;28;20449;-52
2022/02/20 13:45:36;;;;;;;1.67;0.70;;;10.70;69.70;;;;;;5177746;28;20505;-51
2022/02/20 13:48:27;;;;;;;1.58;0.77;;;10.70;69.30;;;;;;5178167;28;20037;-49
2022/02/20 13:51:21;;;;;;;1.83;0.93;;;10.70;68.40;;;;;;5158350;28;20037;-52
2022/02/20 13:54:08;;;;;;;3.63;1.05;;;10.70;68.70;;;;;;5157806;28;20053;-46